sensor_id;sensor_type;location;lat;lon;timestamp;temperature;humidity
25280;DHT22;13225;47.804;12.116;2022-07-29T00:00:48;19.30;99.90
25280;DHT22;13225;47.804;12.116;2022-07-29T00:03:14;19.40;99.90
25280;DHT22;13225;47.804;12.116;2022-07-29T00:05:40;19.30;99.90
25280;DHT22;13225;47.804;12.116;2022-07-29T00:08:07;19.40;99.90
25280;DHT22;13225;47.804;12.116;2022-07-29T00:10:33;19.40;99.90
25280;DHT22;13225;47.804;12.116;2022-07-29T00:12:59;19.40;99.90
25280;DHT22;13225;47.804;12.116;2022-07-29T00:15:24;19.40;99.90
25280;DHT22;13225;47.804;12.116;2022-07-29T00:17:50;19.40;99.90
25280;DHT22;13225;47.804;12.116;2022-07-29T00:20:16;19.30;99.90
25280;DHT22;13225;47.804;12.116;2022-07-29T00:22:42;19.40;99.90
25280;DHT22;13225;47.804;12.116;2022-07-29T00:25:08;19.30;99.90
25280;DHT22;13225;47.804;12.116;2022-07-29T00:27:35;19.20;99.90
25280;DHT22;13225;47.804;12.116;2022-07-29T00:30:01;19.20;99.90
25280;DHT22;13225;47.804;12.116;2022-07-29T00:32:27;19.20;99.90
25280;DHT22;13225;47.804;12.116;2022-07-29T00:34:53;19.10;99.90
25280;DHT22;13225;47.804;12.116;2022-07-29T00:37:37;19.10;99.90
25280;DHT22;13225;47.804;12.116;2022-07-29T00:40:03;19.00;99.90
25280;DHT22;13225;47.804;12.116;2022-07-29T00:42:29;19.00;99.90
25280;DHT22;13225;47.804;12.116;2022-07-29T00:44:54;19.00;99.90
25280;DHT22;13225;47.804;12.116;2022-07-29T00:47:20;19.00;99.90
25280;DHT22;13225;47.804;12.116;2022-07-29T00:49:46;19.10;99.90
25280;DHT22;13225;47.804;12.116;2022-07-29T00:52:12;19.10;99.90
25280;DHT22;13225;47.804;12.116;2022-07-29T00:54:39;19.10;99.90
25280;DHT22;13225;47.804;12.116;2022-07-29T00:57:06;19.10;99.90
25280;DHT22;13225;47.804;12.116;2022-07-29T00:59:33;19.10;99.90
25280;DHT22;13225;47.804;12.116;2022-07-29T01:01:59;19.10;99.90
25280;DHT22;13225;47.804;12.116;2022-07-29T01:04:25;19.10;99.90
25280;DHT22;13225;47.804;12.116;2022-07-29T01:06:51;19.00;99.90
25280;DHT22;13225;47.804;12.116;2022-07-29T01:09:19;19.10;99.90
25280;DHT22;13225;47.804;12.116;2022-07-29T01:11:46;19.10;99.90
25280;DHT22;13225;47.804;12.116;2022-07-29T01:14:14;19.10;99.90
25280;DHT22;13225;47.804;12.116;2022-07-29T01:17:08;19.20;99.90
25280;DHT22;13225;47.804;12.116;2022-07-29T01:28:40;19.30;99.90
25280;DHT22;13225;47.804;12.116;2022-07-29T01:31:11;19.30;99.90
25280;DHT22;13225;47.804;12.116;2022-07-29T01:33:42;19.20;99.90
25280;DHT22;13225;47.804;12.116;2022-07-29T01:36:32;19.30;99.90
25280;DHT22;13225;47.804;12.116;2022-07-29T01:39:40;19.30;99.90
25280;DHT22;13225;47.804;12.116;2022-07-29T01:42:20;19.30;99.90
25280;DHT22;13225;47.804;12.116;2022-07-29T01:44:57;19.20;99.90
25280;DHT22;13225;47.804;12.116;2022-07-29T01:47:30;19.20;99.90
25280;DHT22;13225;47.804;12.116;2022-07-29T01:49:58;19.20;99.90
25280;DHT22;13225;47.804;12.116;2022-07-29T01:52:36;19.20;99.90
25280;DHT22;13225;47.804;12.116;2022-07-29T01:55:09;19.20;99.90
25280;DHT22;13225;47.804;12.116;2022-07-29T01:57:38;19.20;99.90
25280;DHT22;13225;47.804;12.116;2022-07-29T02:00:05;19.20;99.90
25280;DHT22;13225;47.804;12.116;2022-07-29T02:02:32;19.20;99.90
25280;DHT22;13225;47.804;12.116;2022-07-29T02:05:00;19.20;99.90
25280;DHT22;13225;47.804;12.116;2022-07-29T02:07:29;19.20;99.90
25280;DHT22;13225;47.804;12.116;2022-07-29T02:09:57;19.20;99.90
25280;DHT22;13225;47.804;12.116;2022-07-29T02:12:25;19.10;99.90
25280;DHT22;13225;47.804;12.116;2022-07-29T02:14:53;19.10;99.90
25280;DHT22;13225;47.804;12.116;2022-07-29T02:17:27;19.10;99.90
25280;DHT22;13225;47.804;12.116;2022-07-29T02:19:59;19.00;99.90
25280;DHT22;13225;47.804;12.116;2022-07-29T02:22:29;19.00;99.90
25280;DHT22;13225;47.804;12.116;2022-07-29T02:24:57;18.90;99.90
25280;DHT22;13225;47.804;12.116;2022-07-29T02:27:24;18.90;99.90
25280;DHT22;13225;47.804;12.116;2022-07-29T02:29:53;18.80;99.90
25280;DHT22;13225;47.804;12.116;2022-07-29T02:32:21;18.80;99.90
25280;DHT22;13225;47.804;12.116;2022-07-29T02:34:49;18.60;99.90
25280;DHT22;13225;47.804;12.116;2022-07-29T02:37:16;18.50;99.90
25280;DHT22;13225;47.804;12.116;2022-07-29T02:39:44;18.50;99.90
25280;DHT22;13225;47.804;12.116;2022-07-29T02:42:13;18.50;99.90
25280;DHT22;13225;47.804;12.116;2022-07-29T02:44:40;18.50;99.90
25280;DHT22;13225;47.804;12.116;2022-07-29T02:52:37;18.30;99.90
25280;DHT22;13225;47.804;12.116;2022-07-29T02:55:19;18.30;99.90
25280;DHT22;13225;47.804;12.116;2022-07-29T02:58:10;18.30;99.90
25280;DHT22;13225;47.804;12.116;2022-07-29T03:00:39;18.30;99.90
25280;DHT22;13225;47.804;12.116;2022-07-29T03:03:11;18.20;99.90
25280;DHT22;13225;47.804;12.116;2022-07-29T03:05:37;18.20;99.90
25280;DHT22;13225;47.804;12.116;2022-07-29T03:08:05;18.20;99.90
25280;DHT22;13225;47.804;12.116;2022-07-29T03:10:32;18.20;99.90
25280;DHT22;13225;47.804;12.116;2022-07-29T03:12:58;18.20;99.90
25280;DHT22;13225;47.804;12.116;2022-07-29T03:15:25;18.20;99.90
25280;DHT22;13225;47.804;12.116;2022-07-29T03:17:52;18.20;99.90
25280;DHT22;13225;47.804;12.116;2022-07-29T03:20:18;18.10;99.90
25280;DHT22;13225;47.804;12.116;2022-07-29T03:22:45;18.10;99.90
25280;DHT22;13225;47.804;12.116;2022-07-29T03:25:16;18.00;99.90
25280;DHT22;13225;47.804;12.116;2022-07-29T03:27:43;18.10;99.90
25280;DHT22;13225;47.804;12.116;2022-07-29T03:30:10;18.10;99.90
25280;DHT22;13225;47.804;12.116;2022-07-29T03:32:37;18.10;99.90
25280;DHT22;13225;47.804;12.116;2022-07-29T03:35:03;18.20;99.90
25280;DHT22;13225;47.804;12.116;2022-07-29T03:37:29;18.20;99.90
25280;DHT22;13225;47.804;12.116;2022-07-29T03:39:57;18.10;99.90
25280;DHT22;13225;47.804;12.116;2022-07-29T03:42:25;18.10;99.90
25280;DHT22;13225;47.804;12.116;2022-07-29T03:44:52;18.20;99.90
25280;DHT22;13225;47.804;12.116;2022-07-29T03:47:26;18.10;99.90
25280;DHT22;13225;47.804;12.116;2022-07-29T03:49:56;18.10;99.90
25280;DHT22;13225;47.804;12.116;2022-07-29T03:52:23;18.00;99.90
25280;DHT22;13225;47.804;12.116;2022-07-29T03:54:49;18.00;99.90
25280;DHT22;13225;47.804;12.116;2022-07-29T03:57:16;18.00;99.90
25280;DHT22;13225;47.804;12.116;2022-07-29T03:59:42;18.00;99.90
25280;DHT22;13225;47.804;12.116;2022-07-29T04:02:11;18.10;99.90
25280;DHT22;13225;47.804;12.116;2022-07-29T04:04:37;18.10;99.90
25280;DHT22;13225;47.804;12.116;2022-07-29T04:07:03;18.10;99.90
25280;DHT22;13225;47.804;12.116;2022-07-29T04:09:29;18.10;99.90
25280;DHT22;13225;47.804;12.116;2022-07-29T04:11:56;18.20;99.90
25280;DHT22;13225;47.804;12.116;2022-07-29T04:14:21;18.20;99.90
25280;DHT22;13225;47.804;12.116;2022-07-29T04:16:48;18.20;99.90
25280;DHT22;13225;47.804;12.116;2022-07-29T04:19:13;18.20;99.90
25280;DHT22;13225;47.804;12.116;2022-07-29T04:21:40;18.20;99.90
25280;DHT22;13225;47.804;12.116;2022-07-29T04:24:07;18.20;99.90
25280;DHT22;13225;47.804;12.116;2022-07-29T04:26:33;18.20;99.90
25280;DHT22;13225;47.804;12.116;2022-07-29T04:28:59;18.20;99.90
25280;DHT22;13225;47.804;12.116;2022-07-29T04:31:25;18.30;99.90
25280;DHT22;13225;47.804;12.116;2022-07-29T04:33:51;18.30;99.90
25280;DHT22;13225;47.804;12.116;2022-07-29T04:36:17;18.40;99.90
25280;DHT22;13225;47.804;12.116;2022-07-29T04:38:43;18.50;99.90
25280;DHT22;13225;47.804;12.116;2022-07-29T04:41:09;18.60;99.90
25280;DHT22;13225;47.804;12.116;2022-07-29T04:43:35;18.50;99.90
25280;DHT22;13225;47.804;12.116;2022-07-29T04:46:02;18.50;99.90
25280;DHT22;13225;47.804;12.116;2022-07-29T04:48:28;18.50;99.90
25280;DHT22;13225;47.804;12.116;2022-07-29T04:50:54;18.50;99.90
25280;DHT22;13225;47.804;12.116;2022-07-29T04:53:20;18.50;99.90
25280;DHT22;13225;47.804;12.116;2022-07-29T04:55:46;18.60;99.90
25280;DHT22;13225;47.804;12.116;2022-07-29T04:58:12;18.60;99.90
25280;DHT22;13225;47.804;12.116;2022-07-29T05:00:39;18.70;99.90
25280;DHT22;13225;47.804;12.116;2022-07-29T05:03:05;18.80;99.90
25280;DHT22;13225;47.804;12.116;2022-07-29T05:05:32;18.80;99.90
25280;DHT22;13225;47.804;12.116;2022-07-29T05:07:58;18.90;99.90
25280;DHT22;13225;47.804;12.116;2022-07-29T05:10:24;18.90;99.90
25280;DHT22;13225;47.804;12.116;2022-07-29T05:12:50;19.00;99.90
25280;DHT22;13225;47.804;12.116;2022-07-29T05:15:16;19.00;99.90
25280;DHT22;13225;47.804;12.116;2022-07-29T05:17:43;19.10;99.90
25280;DHT22;13225;47.804;12.116;2022-07-29T05:20:09;19.10;99.90
25280;DHT22;13225;47.804;12.116;2022-07-29T05:22:35;19.10;99.90
25280;DHT22;13225;47.804;12.116;2022-07-29T05:25:01;19.10;99.90
25280;DHT22;13225;47.804;12.116;2022-07-29T05:27:27;19.10;99.90
25280;DHT22;13225;47.804;12.116;2022-07-29T05:29:54;19.10;99.90
25280;DHT22;13225;47.804;12.116;2022-07-29T05:32:20;19.30;99.90
25280;DHT22;13225;47.804;12.116;2022-07-29T05:34:46;19.30;99.90
25280;DHT22;13225;47.804;12.116;2022-07-29T05:37:11;19.30;99.90
25280;DHT22;13225;47.804;12.116;2022-07-29T05:39:39;19.20;99.90
25280;DHT22;13225;47.804;12.116;2022-07-29T05:42:09;19.20;99.90
25280;DHT22;13225;47.804;12.116;2022-07-29T05:44:39;19.20;99.90
25280;DHT22;13225;47.804;12.116;2022-07-29T05:47:05;19.30;99.90
25280;DHT22;13225;47.804;12.116;2022-07-29T05:49:32;19.30;99.90
25280;DHT22;13225;47.804;12.116;2022-07-29T05:51:58;19.30;99.90
25280;DHT22;13225;47.804;12.116;2022-07-29T05:54:24;19.30;99.90
25280;DHT22;13225;47.804;12.116;2022-07-29T05:56:49;19.40;99.90
25280;DHT22;13225;47.804;12.116;2022-07-29T05:59:15;19.60;99.90
25280;DHT22;13225;47.804;12.116;2022-07-29T06:01:41;19.70;99.90
25280;DHT22;13225;47.804;12.116;2022-07-29T06:04:07;19.80;99.90
25280;DHT22;13225;47.804;12.116;2022-07-29T06:06:34;20.00;99.90
25280;DHT22;13225;47.804;12.116;2022-07-29T06:09:01;20.10;99.90
25280;DHT22;13225;47.804;12.116;2022-07-29T06:11:27;20.30;99.90
25280;DHT22;13225;47.804;12.116;2022-07-29T06:13:53;20.70;99.90
25280;DHT22;13225;47.804;12.116;2022-07-29T06:16:19;20.80;99.90
25280;DHT22;13225;47.804;12.116;2022-07-29T06:18:45;20.80;99.90
25280;DHT22;13225;47.804;12.116;2022-07-29T06:21:12;20.70;99.90
25280;DHT22;13225;47.804;12.116;2022-07-29T06:23:39;20.70;99.90
25280;DHT22;13225;47.804;12.116;2022-07-29T06:26:05;20.70;99.90
25280;DHT22;13225;47.804;12.116;2022-07-29T06:28:32;20.60;99.90
25280;DHT22;13225;47.804;12.116;2022-07-29T06:30:58;20.60;99.90
25280;DHT22;13225;47.804;12.116;2022-07-29T06:33:24;20.60;99.90
25280;DHT22;13225;47.804;12.116;2022-07-29T06:35:50;20.50;99.90
25280;DHT22;13225;47.804;12.116;2022-07-29T06:38:16;20.30;99.90
25280;DHT22;13225;47.804;12.116;2022-07-29T06:40:45;20.50;99.90
25280;DHT22;13225;47.804;12.116;2022-07-29T06:43:31;20.50;99.90
25280;DHT22;13225;47.804;12.116;2022-07-29T06:46:04;20.70;99.90
25280;DHT22;13225;47.804;12.116;2022-07-29T06:48:31;20.50;99.90
25280;DHT22;13225;47.804;12.116;2022-07-29T06:50:57;20.50;99.90
25280;DHT22;13225;47.804;12.116;2022-07-29T06:53:23;20.40;99.90
25280;DHT22;13225;47.804;12.116;2022-07-29T06:55:49;20.30;99.90
25280;DHT22;13225;47.804;12.116;2022-07-29T06:58:16;20.10;99.90
25280;DHT22;13225;47.804;12.116;2022-07-29T07:00:44;20.00;99.90
25280;DHT22;13225;47.804;12.116;2022-07-29T07:03:11;20.10;99.90
25280;DHT22;13225;47.804;12.116;2022-07-29T07:05:36;20.20;99.90
25280;DHT22;13225;47.804;12.116;2022-07-29T07:08:03;20.00;99.90
25280;DHT22;13225;47.804;12.116;2022-07-29T07:10:28;20.10;99.90
25280;DHT22;13225;47.804;12.116;2022-07-29T07:12:54;20.30;99.90
25280;DHT22;13225;47.804;12.116;2022-07-29T07:15:20;20.40;99.90
25280;DHT22;13225;47.804;12.116;2022-07-29T07:17:50;20.40;99.90
25280;DHT22;13225;47.804;12.116;2022-07-29T07:20:16;20.40;99.90
25280;DHT22;13225;47.804;12.116;2022-07-29T07:22:42;20.50;99.90
25280;DHT22;13225;47.804;12.116;2022-07-29T07:25:10;20.70;99.90
25280;DHT22;13225;47.804;12.116;2022-07-29T07:27:37;20.90;99.90
25280;DHT22;13225;47.804;12.116;2022-07-29T07:30:05;21.10;99.90
25280;DHT22;13225;47.804;12.116;2022-07-29T07:32:34;21.10;99.90
25280;DHT22;13225;47.804;12.116;2022-07-29T07:35:00;21.10;99.90
25280;DHT22;13225;47.804;12.116;2022-07-29T07:37:27;21.10;99.90
25280;DHT22;13225;47.804;12.116;2022-07-29T07:39:53;21.30;99.90
25280;DHT22;13225;47.804;12.116;2022-07-29T07:42:19;21.50;99.90
25280;DHT22;13225;47.804;12.116;2022-07-29T07:44:45;21.60;99.90
25280;DHT22;13225;47.804;12.116;2022-07-29T07:47:12;21.70;99.90
25280;DHT22;13225;47.804;12.116;2022-07-29T07:49:39;22.00;99.90
25280;DHT22;13225;47.804;12.116;2022-07-29T07:52:05;21.90;99.90
25280;DHT22;13225;47.804;12.116;2022-07-29T07:54:31;22.00;99.90
25280;DHT22;13225;47.804;12.116;2022-07-29T07:56:57;22.20;99.90
25280;DHT22;13225;47.804;12.116;2022-07-29T07:59:23;22.40;99.90
25280;DHT22;13225;47.804;12.116;2022-07-29T08:01:49;22.60;99.90
25280;DHT22;13225;47.804;12.116;2022-07-29T08:04:16;22.50;99.90
25280;DHT22;13225;47.804;12.116;2022-07-29T08:06:42;22.60;99.90
25280;DHT22;13225;47.804;12.116;2022-07-29T08:09:08;22.50;99.90
25280;DHT22;13225;47.804;12.116;2022-07-29T08:11:34;22.40;99.90
25280;DHT22;13225;47.804;12.116;2022-07-29T08:14:00;22.70;99.90
25280;DHT22;13225;47.804;12.116;2022-07-29T08:16:27;22.90;99.90
25280;DHT22;13225;47.804;12.116;2022-07-29T08:18:53;22.90;99.90
25280;DHT22;13225;47.804;12.116;2022-07-29T08:21:23;22.70;99.90
25280;DHT22;13225;47.804;12.116;2022-07-29T08:23:49;22.80;99.90
25280;DHT22;13225;47.804;12.116;2022-07-29T08:26:18;22.80;99.90
25280;DHT22;13225;47.804;12.116;2022-07-29T08:28:46;23.10;99.90
25280;DHT22;13225;47.804;12.116;2022-07-29T08:31:15;23.40;99.90
25280;DHT22;13225;47.804;12.116;2022-07-29T08:33:42;23.50;99.90
25280;DHT22;13225;47.804;12.116;2022-07-29T08:36:08;23.60;99.90
25280;DHT22;13225;47.804;12.116;2022-07-29T08:38:35;23.50;99.90
25280;DHT22;13225;47.804;12.116;2022-07-29T08:41:01;23.60;99.90
25280;DHT22;13225;47.804;12.116;2022-07-29T08:43:30;23.30;99.90
25280;DHT22;13225;47.804;12.116;2022-07-29T08:45:57;23.50;99.90
25280;DHT22;13225;47.804;12.116;2022-07-29T08:48:24;23.80;99.90
25280;DHT22;13225;47.804;12.116;2022-07-29T08:50:56;24.00;99.90
25280;DHT22;13225;47.804;12.116;2022-07-29T08:53:24;24.10;99.90
25280;DHT22;13225;47.804;12.116;2022-07-29T08:55:53;24.10;99.90
25280;DHT22;13225;47.804;12.116;2022-07-29T08:58:20;24.30;99.90
25280;DHT22;13225;47.804;12.116;2022-07-29T09:00:51;24.50;99.90
25280;DHT22;13225;47.804;12.116;2022-07-29T09:03:19;24.70;99.90
25280;DHT22;13225;47.804;12.116;2022-07-29T09:05:46;24.80;99.90
25280;DHT22;13225;47.804;12.116;2022-07-29T09:08:16;24.70;99.90
25280;DHT22;13225;47.804;12.116;2022-07-29T09:10:43;24.40;99.90
25280;DHT22;13225;47.804;12.116;2022-07-29T09:13:09;24.30;99.90
25280;DHT22;13225;47.804;12.116;2022-07-29T09:15:35;24.40;99.90
25280;DHT22;13225;47.804;12.116;2022-07-29T09:18:01;24.50;99.90
25280;DHT22;13225;47.804;12.116;2022-07-29T09:20:28;24.60;99.90
25280;DHT22;13225;47.804;12.116;2022-07-29T09:23:14;24.80;99.90
25280;DHT22;13225;47.804;12.116;2022-07-29T09:25:40;24.90;99.90
25280;DHT22;13225;47.804;12.116;2022-07-29T09:28:08;25.00;99.90
25280;DHT22;13225;47.804;12.116;2022-07-29T09:30:34;25.10;99.90
25280;DHT22;13225;47.804;12.116;2022-07-29T09:33:02;25.00;99.90
25280;DHT22;13225;47.804;12.116;2022-07-29T09:35:30;25.10;99.90
25280;DHT22;13225;47.804;12.116;2022-07-29T09:37:56;25.10;99.90
25280;DHT22;13225;47.804;12.116;2022-07-29T09:40:24;25.50;99.90
25280;DHT22;13225;47.804;12.116;2022-07-29T09:42:51;25.50;99.90
25280;DHT22;13225;47.804;12.116;2022-07-29T09:45:32;25.40;99.90
25280;DHT22;13225;47.804;12.116;2022-07-29T09:47:58;25.30;99.90
25280;DHT22;13225;47.804;12.116;2022-07-29T09:53:03;26.10;99.90
25280;DHT22;13225;47.804;12.116;2022-07-29T09:55:29;26.30;99.90
25280;DHT22;13225;47.804;12.116;2022-07-29T09:58:14;26.50;99.90
25280;DHT22;13225;47.804;12.116;2022-07-29T10:00:42;26.60;99.90
25280;DHT22;13225;47.804;12.116;2022-07-29T10:03:09;26.50;99.90
25280;DHT22;13225;47.804;12.116;2022-07-29T10:05:35;26.20;99.90
25280;DHT22;13225;47.804;12.116;2022-07-29T10:08:01;26.00;99.90
25280;DHT22;13225;47.804;12.116;2022-07-29T10:10:36;26.50;99.90
25280;DHT22;13225;47.804;12.116;2022-07-29T10:13:08;26.70;99.90
25280;DHT22;13225;47.804;12.116;2022-07-29T10:15:37;26.70;99.90
25280;DHT22;13225;47.804;12.116;2022-07-29T10:18:07;26.80;99.90
25280;DHT22;13225;47.804;12.116;2022-07-29T10:20:33;26.40;99.90
25280;DHT22;13225;47.804;12.116;2022-07-29T10:22:59;26.60;99.90
25280;DHT22;13225;47.804;12.116;2022-07-29T10:25:26;27.10;99.90
25280;DHT22;13225;47.804;12.116;2022-07-29T10:27:52;27.20;99.90
25280;DHT22;13225;47.804;12.116;2022-07-29T10:30:21;27.00;99.90
25280;DHT22;13225;47.804;12.116;2022-07-29T10:41:47;27.60;99.90
25280;DHT22;13225;47.804;12.116;2022-07-29T10:44:22;28.00;98.10
25280;DHT22;13225;47.804;12.116;2022-07-29T10:46:48;28.00;99.20
25280;DHT22;13225;47.804;12.116;2022-07-29T10:49:26;28.00;99.40
25280;DHT22;13225;47.804;12.116;2022-07-29T10:52:05;28.20;99.80
25280;DHT22;13225;47.804;12.116;2022-07-29T10:54:39;28.30;99.50
25280;DHT22;13225;47.804;12.116;2022-07-29T11:07:28;29.20;97.10
25280;DHT22;13225;47.804;12.116;2022-07-29T11:15:07;29.20;97.90
25280;DHT22;13225;47.804;12.116;2022-07-29T11:20:44;29.00;96.90
25280;DHT22;13225;47.804;12.116;2022-07-29T11:23:31;29.00;97.30
25280;DHT22;13225;47.804;12.116;2022-07-29T11:29:05;29.30;98.80
25280;DHT22;13225;47.804;12.116;2022-07-29T11:32:35;29.10;99.90
25280;DHT22;13225;47.804;12.116;2022-07-29T11:34:32;28.90;99.80
25280;DHT22;13225;47.804;12.116;2022-07-29T11:47:37;29.90;99.50
25280;DHT22;13225;47.804;12.116;2022-07-29T11:50:06;30.00;97.00
25280;DHT22;13225;47.804;12.116;2022-07-29T11:52:37;30.50;96.80
25280;DHT22;13225;47.804;12.116;2022-07-29T11:55:09;30.30;96.50
25280;DHT22;13225;47.804;12.116;2022-07-29T11:57:36;30.20;95.70
25280;DHT22;13225;47.804;12.116;2022-07-29T12:00:07;29.90;96.10
25280;DHT22;13225;47.804;12.116;2022-07-29T12:02:43;29.80;95.70
25280;DHT22;13225;47.804;12.116;2022-07-29T12:05:10;29.80;96.60
25280;DHT22;13225;47.804;12.116;2022-07-29T12:07:37;29.90;96.60
25280;DHT22;13225;47.804;12.116;2022-07-29T12:10:05;30.00;97.30
25280;DHT22;13225;47.804;12.116;2022-07-29T12:12:32;30.10;95.70
25280;DHT22;13225;47.804;12.116;2022-07-29T12:15:09;30.40;96.80
25280;DHT22;13225;47.804;12.116;2022-07-29T12:17:35;30.50;96.80
25280;DHT22;13225;47.804;12.116;2022-07-29T12:20:04;30.50;95.40
25280;DHT22;13225;47.804;12.116;2022-07-29T12:22:33;29.80;95.90
25280;DHT22;13225;47.804;12.116;2022-07-29T12:25:11;29.80;95.20
25280;DHT22;13225;47.804;12.116;2022-07-29T12:27:38;29.80;94.70
25280;DHT22;13225;47.804;12.116;2022-07-29T12:30:15;30.00;94.50
25280;DHT22;13225;47.804;12.116;2022-07-29T12:32:48;30.20;94.10
25280;DHT22;13225;47.804;12.116;2022-07-29T12:35:18;30.10;94.60
25280;DHT22;13225;47.804;12.116;2022-07-29T12:37:46;30.60;93.30
25280;DHT22;13225;47.804;12.116;2022-07-29T12:40:19;30.90;92.30
25280;DHT22;13225;47.804;12.116;2022-07-29T12:45:38;32.00;90.20
25280;DHT22;13225;47.804;12.116;2022-07-29T12:48:06;32.30;89.40
25280;DHT22;13225;47.804;12.116;2022-07-29T12:50:51;31.60;91.60
25280;DHT22;13225;47.804;12.116;2022-07-29T12:53:18;32.60;88.40
25280;DHT22;13225;47.804;12.116;2022-07-29T12:55:47;32.80;86.00
25280;DHT22;13225;47.804;12.116;2022-07-29T12:58:37;32.50;85.40
25280;DHT22;13225;47.804;12.116;2022-07-29T13:01:14;32.60;85.20
25280;DHT22;13225;47.804;12.116;2022-07-29T13:06:36;32.90;83.00
25280;DHT22;13225;47.804;12.116;2022-07-29T13:09:16;32.90;82.50
25280;DHT22;13225;47.804;12.116;2022-07-29T13:11:48;32.90;81.20
25280;DHT22;13225;47.804;12.116;2022-07-29T13:14:36;32.50;84.70
25280;DHT22;13225;47.804;12.116;2022-07-29T13:17:08;33.20;77.30
25280;DHT22;13225;47.804;12.116;2022-07-29T13:19:52;33.90;76.00
25280;DHT22;13225;47.804;12.116;2022-07-29T13:22:21;33.80;76.30
25280;DHT22;13225;47.804;12.116;2022-07-29T13:24:55;33.40;80.70
25280;DHT22;13225;47.804;12.116;2022-07-29T13:27:32;33.60;78.40
25280;DHT22;13225;47.804;12.116;2022-07-29T13:30:00;32.90;81.90
25280;DHT22;13225;47.804;12.116;2022-07-29T13:32:28;32.20;80.90
25280;DHT22;13225;47.804;12.116;2022-07-29T13:35:00;31.60;79.20
25280;DHT22;13225;47.804;12.116;2022-07-29T13:37:27;31.80;81.20
25280;DHT22;13225;47.804;12.116;2022-07-29T13:39:55;31.20;81.20
25280;DHT22;13225;47.804;12.116;2022-07-29T13:42:22;30.10;84.30
25280;DHT22;13225;47.804;12.116;2022-07-29T13:44:48;29.70;85.40
25280;DHT22;13225;47.804;12.116;2022-07-29T13:47:16;29.20;86.20
25280;DHT22;13225;47.804;12.116;2022-07-29T13:49:42;29.00;88.30
25280;DHT22;13225;47.804;12.116;2022-07-29T13:52:08;29.30;88.70
25280;DHT22;13225;47.804;12.116;2022-07-29T13:54:34;30.40;86.70
25280;DHT22;13225;47.804;12.116;2022-07-29T13:57:07;30.70;85.00
25280;DHT22;13225;47.804;12.116;2022-07-29T13:59:33;29.50;85.70
25280;DHT22;13225;47.804;12.116;2022-07-29T14:01:59;28.80;87.60
25280;DHT22;13225;47.804;12.116;2022-07-29T14:04:25;28.40;90.00
25280;DHT22;13225;47.804;12.116;2022-07-29T14:06:51;28.40;90.40
25280;DHT22;13225;47.804;12.116;2022-07-29T14:09:17;28.80;90.50
25280;DHT22;13225;47.804;12.116;2022-07-29T14:11:43;29.00;88.70
25280;DHT22;13225;47.804;12.116;2022-07-29T14:14:09;29.10;88.70
25280;DHT22;13225;47.804;12.116;2022-07-29T14:16:36;29.10;89.50
25280;DHT22;13225;47.804;12.116;2022-07-29T14:19:02;29.20;90.30
25280;DHT22;13225;47.804;12.116;2022-07-29T14:21:28;29.30;88.60
25280;DHT22;13225;47.804;12.116;2022-07-29T14:23:53;29.80;87.00
25280;DHT22;13225;47.804;12.116;2022-07-29T14:26:21;30.40;86.20
25280;DHT22;13225;47.804;12.116;2022-07-29T14:28:48;30.30;88.00
25280;DHT22;13225;47.804;12.116;2022-07-29T14:31:14;30.90;86.50
25280;DHT22;13225;47.804;12.116;2022-07-29T14:33:41;31.20;84.70
25280;DHT22;13225;47.804;12.116;2022-07-29T14:36:08;32.10;80.90
25280;DHT22;13225;47.804;12.116;2022-07-29T14:38:35;33.50;78.80
25280;DHT22;13225;47.804;12.116;2022-07-29T14:41:03;32.90;79.90
25280;DHT22;13225;47.804;12.116;2022-07-29T14:43:29;33.20;78.20
25280;DHT22;13225;47.804;12.116;2022-07-29T14:45:55;31.90;81.30
25280;DHT22;13225;47.804;12.116;2022-07-29T14:48:21;33.20;79.00
25280;DHT22;13225;47.804;12.116;2022-07-29T14:50:47;32.80;78.90
25280;DHT22;13225;47.804;12.116;2022-07-29T14:53:13;32.30;75.90
25280;DHT22;13225;47.804;12.116;2022-07-29T14:55:39;32.30;76.50
25280;DHT22;13225;47.804;12.116;2022-07-29T14:58:06;31.50;79.00
25280;DHT22;13225;47.804;12.116;2022-07-29T15:00:32;30.50;80.50
25280;DHT22;13225;47.804;12.116;2022-07-29T15:03:02;29.80;81.40
25280;DHT22;13225;47.804;12.116;2022-07-29T15:05:32;29.30;84.80
25280;DHT22;13225;47.804;12.116;2022-07-29T15:07:59;28.80;83.80
25280;DHT22;13225;47.804;12.116;2022-07-29T15:10:26;28.30;86.70
25280;DHT22;13225;47.804;12.116;2022-07-29T15:12:53;28.10;88.00
25280;DHT22;13225;47.804;12.116;2022-07-29T15:15:19;28.20;90.20
25280;DHT22;13225;47.804;12.116;2022-07-29T15:17:45;28.30;89.30
25280;DHT22;13225;47.804;12.116;2022-07-29T15:20:11;28.10;90.30
25280;DHT22;13225;47.804;12.116;2022-07-29T15:22:38;28.10;90.80
25280;DHT22;13225;47.804;12.116;2022-07-29T15:25:05;27.80;92.30
25280;DHT22;13225;47.804;12.116;2022-07-29T15:27:31;27.40;91.90
25280;DHT22;13225;47.804;12.116;2022-07-29T15:29:57;27.10;92.60
25280;DHT22;13225;47.804;12.116;2022-07-29T15:32:23;27.00;93.60
25280;DHT22;13225;47.804;12.116;2022-07-29T15:34:49;26.80;93.90
25280;DHT22;13225;47.804;12.116;2022-07-29T15:37:15;26.90;94.20
25280;DHT22;13225;47.804;12.116;2022-07-29T15:39:41;26.70;93.90
25280;DHT22;13225;47.804;12.116;2022-07-29T15:42:07;26.80;94.40
25280;DHT22;13225;47.804;12.116;2022-07-29T15:44:33;26.60;95.20
25280;DHT22;13225;47.804;12.116;2022-07-29T15:46:59;26.50;95.30
25280;DHT22;13225;47.804;12.116;2022-07-29T15:49:38;26.50;95.80
25280;DHT22;13225;47.804;12.116;2022-07-29T15:52:06;26.30;95.50
25280;DHT22;13225;47.804;12.116;2022-07-29T15:54:34;26.20;95.60
25280;DHT22;13225;47.804;12.116;2022-07-29T15:57:01;26.00;95.60
25280;DHT22;13225;47.804;12.116;2022-07-29T15:59:27;25.80;95.80
25280;DHT22;13225;47.804;12.116;2022-07-29T16:01:53;25.60;95.80
25280;DHT22;13225;47.804;12.116;2022-07-29T16:04:19;25.60;95.90
25280;DHT22;13225;47.804;12.116;2022-07-29T16:06:46;25.50;96.30
25280;DHT22;13225;47.804;12.116;2022-07-29T16:09:12;25.50;96.80
25280;DHT22;13225;47.804;12.116;2022-07-29T16:11:40;25.40;96.80
25280;DHT22;13225;47.804;12.116;2022-07-29T16:14:06;25.40;97.30
25280;DHT22;13225;47.804;12.116;2022-07-29T16:16:32;25.30;97.50
25280;DHT22;13225;47.804;12.116;2022-07-29T16:18:58;25.20;97.90
25280;DHT22;13225;47.804;12.116;2022-07-29T16:21:24;25.20;98.30
25280;DHT22;13225;47.804;12.116;2022-07-29T16:23:50;25.10;98.70
25280;DHT22;13225;47.804;12.116;2022-07-29T16:26:16;24.90;98.70